Time;durP1;ratioP1;P1;durP2;ratioP2;P2;SDS_P1;SDS_P2;PMS_P1;PMS_P2;Temp;Humidity;BMP_temperature;BMP_pressure;BME280_temperature;BME280_humidity;BME280_pressure;Samples;Min_cycle;Max_cycle;Signal;HPM_P1;HPM_P2
2023/11/29 00:01:03;;;;;;;;;;;;;;;;;;136197;1294;22814;-82
2023/11/29 00:04:09;;;;;;;;;;;;;;;;;;136186;1294;22294;-81
2023/11/29 00:07:11;;;;;;;;;;;;;;;;;;135571;1294;23007;-82
2023/11/29 00:10:14;;;;;;;;;;;;;;;;;;136184;1294;22790;-83
2023/11/29 00:13:19;;;;;;;;;;;;;;;;;;136177;1294;22273;-82
2023/11/29 00:16:22;;;;;;;;;;;;;;;;;;136253;1294;22486;-83
2023/11/29 00:19:24;;;;;;;;;;;;;;;;;;136283;1294;22298;-83
2023/11/29 00:22:27;;;;;;;;;;;;;;;;;;136159;1294;22304;-83
2023/11/29 00:25:29;;;;;;;;;;;;;;;;;;136208;1294;22305;-83
2023/11/29 00:28:33;;;;;;;;;;;;;;;;;;136083;1294;22390;-83
2023/11/29 00:31:35;;;;;;;;;;;;;;;;;;136139;1294;22282;-81
2023/11/29 00:34:38;;;;;;;;;;;;;;;;;;136165;1294;22317;-82
2023/11/29 00:37:40;;;;;;;;;;;;;;;;;;136147;1294;22745;-82
2023/11/29 00:40:44;;;;;;;;;;;;;;;;;;136167;1294;22776;-82
2023/11/29 00:43:46;;;;;;;;;;;;;;;;;;136188;1294;22652;-83
2023/11/29 00:46:48;;;;;;;;;;;;;;;;;;136206;1294;22339;-82
2023/11/29 00:49:53;;;;;;;;;;;;;;;;;;136225;1294;22732;-83
2023/11/29 00:52:56;;;;;;;;;;;;;;;;;;136196;1292;22234;-83
2023/11/29 00:56:01;;;;;;;;;;;;;;;;;;136211;1294;22295;-83
2023/11/29 00:59:04;;;;;;;;;;;;;;;;;;136205;1291;22895;-82
2023/11/29 01:02:06;;;;;;;;;;;;;;;;;;136176;1294;22258;-81
2023/11/29 01:05:12;;;;;;;;;;;;;;;;;;136213;1294;22264;-82
2023/11/29 01:08:25;;;;;;;;;;;;;;;;;;136217;1294;22965;-82
2023/11/29 01:11:27;;;;;;;;;;;;;;;;;;136251;1294;22336;-82
2023/11/29 01:14:30;;;;;;;;;;;;;;;;;;136223;1294;22232;-83
2023/11/29 01:17:33;;;;;;;;;;;;;;;;;;136282;1294;22312;-83
2023/11/29 01:20:35;;;;;;;;;;;;;;;;;;136360;1294;22332;-81
2023/11/29 01:23:40;;;;;;;;;;;;;;;;;;136296;1294;22456;-82
2023/11/29 01:26:43;;;;;;;;;;;;;;;;;;136288;1294;22375;-82
2023/11/29 01:29:45;;;;;;;;;;;;;;;;;;136219;1294;22912;-82
2023/11/29 01:32:48;;;;;;;;;;;;;;;;;;136202;1294;22485;-83
2023/11/29 01:35:51;;;;;;;;;;;;;;;;;;136219;1292;22594;-82
2023/11/29 01:38:54;;;;;;;;;;;;;;;;;;136223;1294;22705;-82
2023/11/29 01:41:56;;;;;;;;;;;;;;;;;;136209;1294;22204;-81
2023/11/29 01:44:59;;;;;;;;;;;;;;;;;;136236;1294;22172;-81
2023/11/29 01:48:07;;;;;;;;;;;;;;;;;;136219;1294;22296;-82
2023/11/29 01:51:09;;;;;;;;;;;;;;;;;;135976;1282;22869;-82
2023/11/29 01:54:12;;;;;;;;;;;;;;;;;;136197;1294;22819;-83
2023/11/29 01:57:14;;;;;;;;;;;;;;;;;;136163;1294;22340;-81
2023/11/29 02:00:17;;;;;;;;;;;;;;;;;;136187;1294;22383;-81
2023/11/29 02:03:19;;;;;;;;;;;;;;;;;;136161;1294;22862;-82
2023/11/29 02:06:22;;;;;;;;;;;;;;;;;;136178;1294;22280;-81
2023/11/29 02:09:25;;;;;;;;;;;;;;;;;;136183;1294;22311;-82
2023/11/29 02:12:27;;;;;;;;;;;;;;;;;;136189;1294;22299;-82
2023/11/29 02:15:30;;;;;;;;;;;;;;;;;;136190;1294;22221;-82
2023/11/29 02:18:32;;;;;;;;;;;;;;;;;;136189;1294;22294;-82
2023/11/29 02:21:35;;;;;;;;;;;;;;;;;;136183;1294;22308;-81
2023/11/29 02:24:37;;;;;;;;;;;;;;;;;;136194;1294;22284;-81
2023/11/29 02:27:40;;;;;;;;;;;;;;;;;;136204;1294;22419;-82
2023/11/29 02:30:42;;;;;;;;;;;;;;;;;;136206;1294;22201;-83
2023/11/29 02:33:44;;;;;;;;;;;;;;;;;;136157;1294;22356;-83
2023/11/29 02:36:47;;;;;;;;;;;;;;;;;;136182;1294;22324;-86
2023/11/29 02:39:49;;;;;;;;;;;;;;;;;;136213;1294;22344;-82
2023/11/29 02:42:52;;;;;;;;;;;;;;;;;;136188;1289;22409;-81
2023/11/29 02:45:54;;;;;;;;;;;;;;;;;;136210;1294;22359;-82
2023/11/29 02:48:57;;;;;;;;;;;;;;;;;;136171;1294;22321;-82
2023/11/29 02:52:00;;;;;;;;;;;;;;;;;;136206;1294;22286;-82
2023/11/29 02:55:02;;;;;;;;;;;;;;;;;;136205;1294;22305;-82
2023/11/29 02:58:05;;;;;;;;;;;;;;;;;;136193;1294;22398;-82
2023/11/29 03:01:07;;;;;;;;;;;;;;;;;;136210;1294;22308;-82
2023/11/29 03:04:10;;;;;;;;;;;;;;;;;;136195;1294;22286;-82
2023/11/29 03:07:14;;;;;;;;;;;;;;;;;;136182;1294;22339;-82
2023/11/29 03:10:16;;;;;;;;;;;;;;;;;;136170;1294;22785;-82
2023/11/29 03:13:18;;;;;;;;;;;;;;;;;;136196;1294;22435;-81
2023/11/29 03:16:23;;;;;;;;;;;;;;;;;;136165;1294;22321;-82
2023/11/29 03:19:26;;;;;;;;;;;;;;;;;;136185;1294;22371;-82
2023/11/29 03:22:32;;;;;;;;;;;;;;;;;;136216;1294;22379;-82
2023/11/29 03:25:34;;;;;;;;;;;;;;;;;;136184;1294;22392;-82
2023/11/29 03:28:36;;;;;;;;;;;;;;;;;;136210;1294;22371;-82
2023/11/29 03:31:39;;;;;;;;;;;;;;;;;;136322;1294;22359;-82
2023/11/29 03:34:44;;;;;;;;;;;;;;;;;;136314;1294;22329;-82
2023/11/29 03:37:46;;;;;;;;;;;;;;;;;;136283;1294;22362;-82
2023/11/29 03:40:49;;;;;;;;;;;;;;;;;;136290;1294;22307;-81
2023/11/29 03:43:51;;;;;;;;;;;;;;;;;;136226;1294;22253;-80
2023/11/29 03:46:54;;;;;;;;;;;;;;;;;;136185;1294;22359;-80
2023/11/29 03:49:56;;;;;;;;;;;;;;;;;;136136;1294;22745;-81
2023/11/29 03:52:59;;;;;;;;;;;;;;;;;;136183;1294;22270;-81
2023/11/29 03:56:01;;;;;;;;;;;;;;;;;;136180;1294;22277;-80
2023/11/29 03:59:04;;;;;;;;;;;;;;;;;;136190;1294;22441;-81
2023/11/29 04:02:06;;;;;;;;;;;;;;;;;;136166;1294;22293;-80
2023/11/29 04:05:09;;;;;;;;;;;;;;;;;;136192;1294;22257;-80
2023/11/29 04:08:11;;;;;;;;;;;;;;;;;;136169;1294;22716;-81
2023/11/29 04:11:14;;;;;;;;;;;;;;;;;;136134;1291;22226;-82
2023/11/29 04:14:16;;;;;;;;;;;;;;;;;;136177;1294;22900;-81
2023/11/29 04:17:19;;;;;;;;;;;;;;;;;;136207;1294;22739;-81
2023/11/29 04:20:21;;;;;;;;;;;;;;;;;;136168;1294;22291;-80
2023/11/29 04:23:24;;;;;;;;;;;;;;;;;;136171;1294;22835;-80
2023/11/29 04:26:29;;;;;;;;;;;;;;;;;;136136;1294;22335;-78
2023/11/29 04:29:32;;;;;;;;;;;;;;;;;;136089;1294;22395;-82
2023/11/29 04:32:34;;;;;;;;;;;;;;;;;;136028;1294;22319;-83
2023/11/29 04:35:37;;;;;;;;;;;;;;;;;;136074;1294;22286;-82
2023/11/29 04:38:39;;;;;;;;;;;;;;;;;;136135;1294;22338;-83
2023/11/29 04:41:42;;;;;;;;;;;;;;;;;;136044;1294;22291;-83
2023/11/29 04:44:45;;;;;;;;;;;;;;;;;;136097;1294;22186;-82
2023/11/29 04:47:48;;;;;;;;;;;;;;;;;;136067;1294;22676;-80
2023/11/29 04:50:51;;;;;;;;;;;;;;;;;;136109;1294;22295;-83
2023/11/29 04:53:53;;;;;;;;;;;;;;;;;;136244;1294;22354;-83
2023/11/29 04:56:56;;;;;;;;;;;;;;;;;;136081;1282;22785;-84
2023/11/29 04:59:58;;;;;;;;;;;;;;;;;;136022;1294;22844;-83
2023/11/29 05:03:01;;;;;;;;;;;;;;;;;;136049;1294;22237;-84
2023/11/29 05:06:04;;;;;;;;;;;;;;;;;;135888;1294;22699;-82
2023/11/29 05:09:06;;;;;;;;;;;;;;;;;;135966;1294;22155;-83
2023/11/29 05:12:09;;;;;;;;;;;;;;;;;;136026;1294;22278;-79
2023/11/29 05:15:11;;;;;;;;;;;;;;;;;;135991;1294;22604;-81
2023/11/29 05:18:14;;;;;;;;;;;;;;;;;;135984;1279;22268;-81
2023/11/29 05:21:17;;;;;;;;;;;;;;;;;;135958;1294;22192;-82
2023/11/29 05:24:19;;;;;;;;;;;;;;;;;;135997;1294;22279;-82
2023/11/29 05:27:23;;;;;;;;;;;;;;;;;;136023;1294;22197;-82
2023/11/29 05:30:26;;;;;;;;;;;;;;;;;;136040;1294;22272;-82
2023/11/29 05:33:29;;;;;;;;;;;;;;;;;;136086;1289;22282;-81
2023/11/29 05:36:32;;;;;;;;;;;;;;;;;;136087;1294;22255;-83
2023/11/29 05:39:34;;;;;;;;;;;;;;;;;;136094;1294;22285;-83
2023/11/29 05:42:38;;;;;;;;;;;;;;;;;;136096;1294;22294;-82
2023/11/29 05:45:40;;;;;;;;;;;;;;;;;;136057;1294;22304;-83
2023/11/29 05:48:43;;;;;;;;;;;;;;;;;;136263;1294;22179;-82
2023/11/29 05:51:46;;;;;;;;;;;;;;;;;;136285;1294;22301;-83
2023/11/29 05:54:51;;;;;;;;;;;;;;;;;;136131;1283;22178;-83
2023/11/29 05:57:53;;;;;;;;;;;;;;;;;;135997;1294;22873;-84
2023/11/29 06:00:56;;;;;;;;;;;;;;;;;;135932;1294;22295;-83
2023/11/29 06:03:59;;;;;;;;;;;;;;;;;;135999;1292;22930;-83
2023/11/29 06:07:01;;;;;;;;;;;;;;;;;;136004;1294;22317;-83
2023/11/29 06:10:04;;;;;;;;;;;;;;;;;;136046;1294;22706;-83
2023/11/29 06:13:06;;;;;;;;;;;;;;;;;;135975;1294;22184;-81
2023/11/29 06:16:09;;;;;;;;;;;;;;;;;;135951;1294;22356;-83
2023/11/29 06:19:12;;;;;;;;;;;;;;;;;;135742;1294;22309;-83
2023/11/29 06:22:14;;;;;;;;;;;;;;;;;;135947;1294;22291;-83
2023/11/29 06:25:17;;;;;;;;;;;;;;;;;;135770;1294;22287;-83
2023/11/29 06:28:19;;;;;;;;;;;;;;;;;;136084;1294;22379;-82
2023/11/29 06:31:22;;;;;;;;;;;;;;;;;;135960;1291;22209;-81
2023/11/29 06:34:24;;;;;;;;;;;;;;;;;;135975;1286;22213;-82
2023/11/29 06:37:42;;;;;;;;;;;;;;;;;;136066;1294;22413;-82
2023/11/29 06:40:45;;;;;;;;;;;;;;;;;;136054;1294;22500;-83
2023/11/29 06:43:48;;;;;;;;;;;;;;;;;;136025;1294;22293;-84
2023/11/29 06:46:51;;;;;;;;;;;;;;;;;;136006;1294;22312;-83
2023/11/29 06:49:53;;;;;;;;;;;;;;;;;;136083;1294;22305;-84
2023/11/29 06:52:58;;;;;;;;;;;;;;;;;;136025;1282;22277;-82
2023/11/29 06:56:00;;;;;;;;;;;;;;;;;;136040;1294;22322;-83
2023/11/29 06:59:05;;;;;;;;;;;;;;;;;;136056;1283;22435;-83
2023/11/29 07:02:07;;;;;;;;;;;;;;;;;;136067;1294;22285;-83
2023/11/29 07:05:10;;;;;;;;;;;;;;;;;;136073;1294;22296;-83
2023/11/29 07:08:13;;;;;;;;;;;;;;;;;;136042;1292;22261;-85
2023/11/29 07:11:15;;;;;;;;;;;;;;;;;;136045;1294;22269;-83
2023/11/29 07:14:18;;;;;;;;;;;;;;;;;;136056;1294;22305;-83
2023/11/29 07:17:21;;;;;;;;;;;;;;;;;;136048;1294;22273;-83
2023/11/29 07:20:24;;;;;;;;;;;;;;;;;;135793;1294;22209;-82
2023/11/29 07:23:26;;;;;;;;;;;;;;;;;;136019;1294;22282;-81
2023/11/29 07:26:29;;;;;;;;;;;;;;;;;;136011;1294;22542;-82
2023/11/29 07:29:31;;;;;;;;;;;;;;;;;;136007;1294;22392;-82
2023/11/29 07:32:34;;;;;;;;;;;;;;;;;;135967;1294;22234;-81
2023/11/29 07:35:36;;;;;;;;;;;;;;;;;;136054;1294;22285;-83
2023/11/29 07:38:40;;;;;;;;;;;;;;;;;;136000;1294;22208;-83
2023/11/29 07:41:42;;;;;;;;;;;;;;;;;;136023;1294;22252;-83
2023/11/29 07:45:00;;;;;;;;;;;;;;;;;;136002;1292;22218;-83
2023/11/29 07:48:03;;;;;;;;;;;;;;;;;;136039;1294;22282;-82
2023/11/29 07:51:08;;;;;;;;;;;;;;;;;;136050;1294;22754;-83
2023/11/29 07:54:10;;;;;;;;;;;;;;;;;;136093;1294;22281;-86
2023/11/29 07:57:13;;;;;;;;;;;;;;;;;;136160;1294;22448;-86
2023/11/29 08:00:15;;;;;;;;;;;;;;;;;;136120;1294;22395;-82
2023/11/29 08:03:19;;;;;;;;;;;;;;;;;;136177;1294;22356;-82
2023/11/29 08:06:21;;;;;;;;;;;;;;;;;;136199;1287;22250;-83
2023/11/29 08:09:24;;;;;;;;;;;;;;;;;;136131;1294;22223;-82
2023/11/29 08:12:26;;;;;;;;;;;;;;;;;;136059;1286;22332;-82
2023/11/29 08:15:29;;;;;;;;;;;;;;;;;;135761;1294;22632;-80
2023/11/29 08:18:32;;;;;;;;;;;;;;;;;;135960;1294;22304;-83
2023/11/29 08:21:34;;;;;;;;;;;;;;;;;;135902;1294;22259;-80
2023/11/29 08:24:37;;;;;;;;;;;;;;;;;;135945;1294;22712;-83
2023/11/29 08:27:40;;;;;;;;;;;;;;;;;;135982;1294;22915;-83
2023/11/29 08:30:42;;;;;;;;;;;;;;;;;;136054;1294;22355;-81
2023/11/29 08:33:45;;;;;;;;;;;;;;;;;;135891;1294;22268;-80
2023/11/29 08:36:47;;;;;;;;;;;;;;;;;;136081;1294;22421;-83
2023/11/29 08:39:50;;;;;;;;;;;;;;;;;;135970;1294;22311;-82
2023/11/29 08:42:53;;;;;;;;;;;;;;;;;;135957;1294;22328;-83
2023/11/29 08:45:55;;;;;;;;;;;;;;;;;;135922;1294;22678;-81
2023/11/29 08:48:58;;;;;;;;;;;;;;;;;;135936;1294;22285;-82
2023/11/29 08:52:00;;;;;;;;;;;;;;;;;;135920;1294;22341;-83
2023/11/29 08:55:04;;;;;;;;;;;;;;;;;;136011;1294;22764;-81
2023/11/29 08:58:07;;;;;;;;;;;;;;;;;;136110;1294;22866;-81
2023/11/29 09:01:10;;;;;;;;;;;;;;;;;;136018;1294;22351;-81
2023/11/29 09:04:12;;;;;;;;;;;;;;;;;;136000;1294;22365;-82
2023/11/29 09:07:15;;;;;;;;;;;;;;;;;;136027;1294;22380;-82
2023/11/29 09:10:18;;;;;;;;;;;;;;;;;;135947;1294;22206;-81
2023/11/29 09:13:20;;;;;;;;;;;;;;;;;;135938;1294;22735;-82
2023/11/29 09:16:23;;;;;;;;;;;;;;;;;;135986;1294;22264;-82
2023/11/29 09:19:25;;;;;;;;;;;;;;;;;;135979;1294;22341;-82
2023/11/29 09:22:28;;;;;;;;;;;;;;;;;;135987;1294;22362;-83
2023/11/29 09:25:30;;;;;;;;;;;;;;;;;;135994;1294;22329;-81
2023/11/29 09:28:33;;;;;;;;;;;;;;;;;;135927;1294;22366;-82
2023/11/29 09:31:35;;;;;;;;;;;;;;;;;;135933;1288;22276;-82
2023/11/29 09:34:38;;;;;;;;;;;;;;;;;;135913;1294;22275;-82
2023/11/29 09:37:40;;;;;;;;;;;;;;;;;;135898;1294;22282;-84
2023/11/29 09:40:46;;;;;;;;;;;;;;;;;;135987;1294;22312;-83
2023/11/29 09:43:48;;;;;;;;;;;;;;;;;;136049;1294;22752;-82
2023/11/29 09:46:51;;;;;;;;;;;;;;;;;;135948;1294;22263;-80
2023/11/29 09:49:53;;;;;;;;;;;;;;;;;;135926;1294;22645;-81
2023/11/29 09:52:57;;;;;;;;;;;;;;;;;;136014;1282;22506;-81
2023/11/29 09:55:59;;;;;;;;;;;;;;;;;;135945;1282;22247;-81
2023/11/29 09:59:02;;;;;;;;;;;;;;;;;;136027;1294;22428;-81
2023/11/29 10:02:05;;;;;;;;;;;;;;;;;;136034;1292;22233;-80
2023/11/29 10:05:07;;;;;;;;;;;;;;;;;;135964;1294;22711;-80
2023/11/29 10:08:09;;;;;;;;;;;;;;;;;;135958;1294;22317;-81
2023/11/29 10:11:12;;;;;;;;;;;;;;;;;;136072;1294;22367;-80
2023/11/29 10:14:15;;;;;;;;;;;;;;;;;;136142;1294;22453;-81
2023/11/29 10:17:17;;;;;;;;;;;;;;;;;;136178;1294;22389;-81
2023/11/29 10:20:20;;;;;;;;;;;;;;;;;;136273;1294;22304;-81
2023/11/29 10:23:24;;;;;;;;;;;;;;;;;;136267;1294;22437;-79
2023/11/29 10:26:27;;;;;;;;;;;;;;;;;;136171;1294;22306;-81
2023/11/29 10:29:29;;;;;;;;;;;;;;;;;;136058;1294;22400;-81
2023/11/29 10:32:32;;;;;;;;;;;;;;;;;;136000;1294;22205;-82
2023/11/29 10:35:35;;;;;;;;;;;;;;;;;;135973;1294;23092;-81
2023/11/29 10:38:39;;;;;;;;;;;;;;;;;;135974;1292;22693;-81
2023/11/29 10:41:42;;;;;;;;;;;;;;;;;;136072;1294;22285;-83
2023/11/29 10:44:45;;;;;;;;;;;;;;;;;;136069;1294;22217;-81
2023/11/29 10:47:50;;;;;;;;;;;;;;;;;;136019;1294;22760;-82
2023/11/29 10:50:52;;;;;;;;;;;;;;;;;;136060;1294;22278;-83
2023/11/29 10:53:59;;;;;;;;;;;;;;;;;;136072;1294;22375;-82
2023/11/29 10:57:02;;;;;;;;;;;;;;;;;;136082;1294;22750;-82
2023/11/29 11:00:06;;;;;;;;;;;;;;;;;;136007;1294;22400;-83
2023/11/29 11:03:09;;;;;;;;;;;;;;;;;;136005;1294;22362;-86
2023/11/29 11:06:12;;;;;;;;;;;;;;;;;;136024;1294;22312;-85
2023/11/29 11:09:14;;;;;;;;;;;;;;;;;;135989;1294;22867;-82
2023/11/29 11:12:17;;;;;;;;;;;;;;;;;;136062;1294;22324;-81
2023/11/29 11:15:21;;;;;;;;;;;;;;;;;;135954;1294;22289;-80
2023/11/29 11:18:23;;;;;;;;;;;;;;;;;;135766;1294;22220;-82
2023/11/29 11:21:28;;;;;;;;;;;;;;;;;;135981;1294;22287;-81
2023/11/29 11:24:30;;;;;;;;;;;;;;;;;;135938;1294;22591;-84
2023/11/29 11:27:33;;;;;;;;;;;;;;;;;;136041;1286;22911;-83
2023/11/29 11:30:35;;;;;;;;;;;;;;;;;;136008;1294;22372;-81
2023/11/29 11:33:38;;;;;;;;;;;;;;;;;;136050;1294;22199;-83
2023/11/29 11:36:40;;;;;;;;;;;;;;;;;;136027;1294;22298;-83
2023/11/29 11:39:44;;;;;;;;;;;;;;;;;;136043;1294;22279;-83
2023/11/29 11:42:46;;;;;;;;;;;;;;;;;;136081;1294;22296;-83
2023/11/29 11:45:49;;;;;;;;;;;;;;;;;;136049;1294;22363;-85
2023/11/29 11:48:52;;;;;;;;;;;;;;;;;;136056;1294;22339;-82
2023/11/29 11:51:54;;;;;;;;;;;;;;;;;;136043;1294;22307;-82
2023/11/29 11:54:57;;;;;;;;;;;;;;;;;;136010;1294;22807;-82
2023/11/29 11:58:00;;;;;;;;;;;;;;;;;;135968;1294;22494;-82
2023/11/29 12:01:02;;;;;;;;;;;;;;;;;;136044;1294;22265;-82
2023/11/29 12:04:05;;;;;;;;;;;;;;;;;;136007;1294;22866;-83
2023/11/29 12:07:08;;;;;;;;;;;;;;;;;;135984;1294;22670;-81
2023/11/29 12:10:10;;;;;;;;;;;;;;;;;;135922;1294;23091;-83
2023/11/29 12:13:14;;;;;;;;;;;;;;;;;;135916;1294;22658;-82
2023/11/29 12:16:16;;;;;;;;;;;;;;;;;;135979;1291;22223;-81
2023/11/29 12:19:21;;;;;;;;;;;;;;;;;;135948;1294;22328;-82
2023/11/29 12:22:24;;;;;;;;;;;;;;;;;;135925;1294;22317;-83
2023/11/29 12:25:26;;;;;;;;;;;;;;;;;;136029;1294;22760;-84
2023/11/29 12:28:32;;;;;;;;;;;;;;;;;;136084;1294;22388;-83
2023/11/29 12:31:34;;;;;;;;;;;;;;;;;;136173;1294;22336;-81
2023/11/29 12:34:37;;;;;;;;;;;;;;;;;;136168;1294;22289;-80
2023/11/29 12:37:39;;;;;;;;;;;;;;;;;;136217;1294;22229;-78
2023/11/29 12:40:42;;;;;;;;;;;;;;;;;;136056;1293;22289;-80
2023/11/29 12:43:44;;;;;;;;;;;;;;;;;;135829;1294;22299;-81
2023/11/29 12:46:47;;;;;;;;;;;;;;;;;;136035;1294;22308;-82
2023/11/29 12:49:50;;;;;;;;;;;;;;;;;;136035;1294;22552;-83
2023/11/29 12:52:52;;;;;;;;;;;;;;;;;;136011;1294;22747;-82
2023/11/29 12:55:55;;;;;;;;;;;;;;;;;;136031;1292;22257;-80
2023/11/29 12:58:57;;;;;;;;;;;;;;;;;;135974;1294;22853;-81
2023/11/29 13:02:00;;;;;;;;;;;;;;;;;;136029;1294;22191;-78
2023/11/29 13:05:02;;;;;;;;;;;;;;;;;;135982;1294;22298;-80
2023/11/29 13:08:05;;;;;;;;;;;;;;;;;;135942;1294;22284;-81
2023/11/29 13:11:07;;;;;;;;;;;;;;;;;;135922;1294;22184;-82
2023/11/29 13:14:10;;;;;;;;;;;;;;;;;;135938;1294;22630;-78
2023/11/29 13:17:13;;;;;;;;;;;;;;;;;;135946;1294;22205;-79
2023/11/29 13:20:15;;;;;;;;;;;;;;;;;;135839;1294;23087;-77
2023/11/29 13:23:18;;;;;;;;;;;;;;;;;;135819;1294;22659;-78
2023/11/29 13:26:20;;;;;;;;;;;;;;;;;;135769;1294;22311;-77
2023/11/29 13:29:23;;;;;;;;;;;;;;;;;;135789;1294;22409;-79
2023/11/29 13:32:26;;;;;;;;;;;;;;;;;;135831;1294;22290;-78
2023/11/29 13:35:28;;;;;;;;;;;;;;;;;;135888;1294;22259;-81
2023/11/29 13:38:31;;;;;;;;;;;;;;;;;;135940;1294;22533;-79
2023/11/29 13:41:33;;;;;;;;;;;;;;;;;;135980;1294;22287;-79
2023/11/29 13:44:36;;;;;;;;;;;;;;;;;;135883;1294;22721;-78
2023/11/29 13:47:39;;;;;;;;;;;;;;;;;;135969;1294;22274;-79
2023/11/29 13:50:42;;;;;;;;;;;;;;;;;;135946;1294;22284;-81
2023/11/29 13:53:44;;;;;;;;;;;;;;;;;;135947;1294;22353;-79
2023/11/29 13:56:47;;;;;;;;;;;;;;;;;;136002;1294;22266;-83
2023/11/29 13:59:49;;;;;;;;;;;;;;;;;;135910;1294;22439;-80
2023/11/29 14:02:52;;;;;;;;;;;;;;;;;;135891;1286;22235;-80
2023/11/29 14:05:57;;;;;;;;;;;;;;;;;;135901;1294;22163;-79
2023/11/29 14:08:59;;;;;;;;;;;;;;;;;;135904;1291;22275;-83
2023/11/29 14:12:02;;;;;;;;;;;;;;;;;;135882;1294;22758;-82
2023/11/29 14:15:04;;;;;;;;;;;;;;;;;;135864;1294;22356;-81
2023/11/29 14:18:07;;;;;;;;;;;;;;;;;;135909;1294;22355;-80
2023/11/29 14:21:09;;;;;;;;;;;;;;;;;;135926;1294;22247;-80
2023/11/29 14:24:12;;;;;;;;;;;;;;;;;;135911;1294;22358;-81
2023/11/29 14:27:15;;;;;;;;;;;;;;;;;;135942;1294;22312;-81
2023/11/29 14:30:17;;;;;;;;;;;;;;;;;;136035;1282;22359;-81
2023/11/29 14:33:19;;;;;;;;;;;;;;;;;;135999;1294;22307;-82
2023/11/29 14:36:22;;;;;;;;;;;;;;;;;;136043;1294;22570;-82
2023/11/29 14:39:25;;;;;;;;;;;;;;;;;;136238;1294;22237;-81
2023/11/29 14:42:28;;;;;;;;;;;;;;;;;;136259;1288;22314;-81
2023/11/29 14:45:30;;;;;;;;;;;;;;;;;;136228;1294;22323;-81
2023/11/29 14:48:33;;;;;;;;;;;;;;;;;;136175;1294;22302;-84
2023/11/29 14:51:35;;;;;;;;;;;;;;;;;;136192;1294;22414;-81
2023/11/29 14:54:38;;;;;;;;;;;;;;;;;;136044;1294;22320;-83
2023/11/29 14:57:40;;;;;;;;;;;;;;;;;;136105;1294;22462;-83
2023/11/29 15:00:44;;;;;;;;;;;;;;;;;;136035;1294;22282;-83
2023/11/29 15:03:47;;;;;;;;;;;;;;;;;;136062;1294;22405;-83
2023/11/29 15:06:49;;;;;;;;;;;;;;;;;;136032;1294;22390;-83
2023/11/29 15:09:52;;;;;;;;;;;;;;;;;;136025;1294;22313;-83
2023/11/29 15:12:54;;;;;;;;;;;;;;;;;;136022;1294;22305;-82
2023/11/29 15:15:57;;;;;;;;;;;;;;;;;;136071;1294;22276;-83
2023/11/29 15:19:00;;;;;;;;;;;;;;;;;;136107;1294;22256;-83
2023/11/29 15:22:02;;;;;;;;;;;;;;;;;;136035;1294;22401;-83
2023/11/29 15:25:05;;;;;;;;;;;;;;;;;;136088;1294;22282;-84
2023/11/29 15:28:07;;;;;;;;;;;;;;;;;;136048;1294;22406;-83
2023/11/29 15:31:12;;;;;;;;;;;;;;;;;;136004;1294;22318;-83
2023/11/29 15:34:14;;;;;;;;;;;;;;;;;;136051;1294;22200;-83
2023/11/29 15:37:19;;;;;;;;;;;;;;;;;;136030;1288;22314;-83
2023/11/29 15:40:22;;;;;;;;;;;;;;;;;;135998;1294;22500;-83
2023/11/29 15:43:24;;;;;;;;;;;;;;;;;;136050;1294;22183;-83
2023/11/29 15:46:27;;;;;;;;;;;;;;;;;;135809;1294;22324;-83
2023/11/29 15:49:32;;;;;;;;;;;;;;;;;;136117;1294;22310;-83
2023/11/29 15:52:38;;;;;;;;;;;;;;;;;;136160;1294;22296;-85
2023/11/29 15:55:40;;;;;;;;;;;;;;;;;;136080;1294;22218;-82
2023/11/29 15:58:45;;;;;;;;;;;;;;;;;;136081;1294;22463;-83
2023/11/29 16:01:47;;;;;;;;;;;;;;;;;;136128;1294;22299;-84
2023/11/29 16:04:50;;;;;;;;;;;;;;;;;;136135;1294;22291;-85
2023/11/29 16:07:53;;;;;;;;;;;;;;;;;;136182;1294;22313;-83
2023/11/29 16:10:56;;;;;;;;;;;;;;;;;;136199;1294;22415;-84
2023/11/29 16:13:58;;;;;;;;;;;;;;;;;;136170;1294;22459;-86
2023/11/29 16:17:03;;;;;;;;;;;;;;;;;;136083;1294;22305;-85
2023/11/29 16:20:05;;;;;;;;;;;;;;;;;;136140;1294;22738;-85
2023/11/29 16:23:11;;;;;;;;;;;;;;;;;;136186;1294;22334;-85
2023/11/29 16:26:13;;;;;;;;;;;;;;;;;;136069;1294;22711;-85
2023/11/29 16:29:16;;;;;;;;;;;;;;;;;;136110;1294;22975;-80
2023/11/29 16:32:18;;;;;;;;;;;;;;;;;;136108;1294;22601;-84
2023/11/29 16:35:22;;;;;;;;;;;;;;;;;;136142;1294;22462;-85
2023/11/29 16:38:25;;;;;;;;;;;;;;;;;;136134;1294;22298;-85
2023/11/29 16:41:27;;;;;;;;;;;;;;;;;;136135;1294;22196;-85
2023/11/29 16:44:30;;;;;;;;;;;;;;;;;;136084;1294;22333;-86
2023/11/29 16:47:32;;;;;;;;;;;;;;;;;;136165;1294;22301;-85
2023/11/29 16:54:09;;;;;;;;;;;;;;;;;;133536;1309;544018;-85
2023/11/29 16:57:12;;;;;;;;;;;;;;;;;;136526;1283;22537;-85
2023/11/29 17:00:14;;;;;;;;;;;;;;;;;;137147;1278;22515;-86
2023/11/29 17:03:17;;;;;;;;;;;;;;;;;;136915;1278;22558;-85
2023/11/29 17:06:20;;;;;;;;;;;;;;;;;;136707;1275;350273;-84
2023/11/29 17:09:23;;;;;;;;;;;;;;;;;;137383;1275;22353;-84
2023/11/29 17:12:25;;;;;;;;;;;;;;;;;;137108;1275;22519;-83
2023/11/29 17:15:28;;;;;;;;;;;;;;;;;;137398;1275;22572;-83
2023/11/29 17:18:33;;;;;;;;;;;;;;;;;;136960;1275;22549;-83
2023/11/29 17:21:35;;;;;;;;;;;;;;;;;;137389;1275;22560;-84
2023/11/29 17:24:38;;;;;;;;;;;;;;;;;;136959;1275;22562;-83
2023/11/29 17:27:40;;;;;;;;;;;;;;;;;;137396;1275;22290;-83
2023/11/29 17:30:44;;;;;;;;;;;;;;;;;;137406;1275;22292;-84
2023/11/29 17:33:47;;;;;;;;;;;;;;;;;;137381;1275;22336;-84
2023/11/29 17:36:49;;;;;;;;;;;;;;;;;;137386;1275;22732;-84
2023/11/29 17:39:53;;;;;;;;;;;;;;;;;;137393;1275;22519;-84
2023/11/29 17:42:55;;;;;;;;;;;;;;;;;;137381;1275;22382;-85
2023/11/29 17:45:58;;;;;;;;;;;;;;;;;;137429;1275;22291;-84
2023/11/29 17:49:00;;;;;;;;;;;;;;;;;;137341;1275;24842;-84
2023/11/29 17:52:03;;;;;;;;;;;;;;;;;;137344;1275;22523;-84
2023/11/29 17:55:05;;;;;;;;;;;;;;;;;;137381;1275;23560;-84
2023/11/29 17:58:08;;;;;;;;;;;;;;;;;;137228;1275;22490;-83
2023/11/29 18:01:10;;;;;;;;;;;;;;;;;;137320;1275;22547;-84
2023/11/29 18:04:13;;;;;;;;;;;;;;;;;;137304;1275;22960;-79
2023/11/29 18:07:15;;;;;;;;;;;;;;;;;;137344;1275;23080;-79
2023/11/29 18:10:18;;;;;;;;;;;;;;;;;;137340;1275;22407;-83
2023/11/29 18:13:22;;;;;;;;;;;;;;;;;;137333;1272;22319;-83
2023/11/29 18:16:26;;;;;;;;;;;;;;;;;;137379;1275;22404;-83
2023/11/29 18:19:28;;;;;;;;;;;;;;;;;;137363;1275;22710;-84
2023/11/29 18:22:31;;;;;;;;;;;;;;;;;;137405;1275;22412;-82
2023/11/29 18:25:34;;;;;;;;;;;;;;;;;;137353;1275;23092;-84
2023/11/29 18:28:36;;;;;;;;;;;;;;;;;;137269;1275;22605;-84
2023/11/29 18:31:39;;;;;;;;;;;;;;;;;;137349;1275;22499;-84
2023/11/29 18:34:44;;;;;;;;;;;;;;;;;;137288;1275;22538;-84
2023/11/29 18:37:47;;;;;;;;;;;;;;;;;;137252;1275;22544;-84
2023/11/29 18:40:50;;;;;;;;;;;;;;;;;;137319;1275;22554;-83
2023/11/29 18:43:52;;;;;;;;;;;;;;;;;;137231;1275;23021;-83
2023/11/29 18:46:55;;;;;;;;;;;;;;;;;;137390;1275;22329;-84
2023/11/29 18:49:57;;;;;;;;;;;;;;;;;;137216;1275;22486;-84
2023/11/29 18:53:00;;;;;;;;;;;;;;;;;;137442;1275;22442;-84
2023/11/29 18:56:03;;;;;;;;;;;;;;;;;;137413;1275;22353;-83
2023/11/29 18:59:05;;;;;;;;;;;;;;;;;;137245;1275;23382;-84
2023/11/29 19:02:08;;;;;;;;;;;;;;;;;;137163;1275;22890;-83
2023/11/29 19:05:11;;;;;;;;;;;;;;;;;;137457;1275;22335;-84
2023/11/29 19:09:02;;;;;;;;;;;;;;;;;;132873;1311;544284;-84
2023/11/29 19:12:04;;;;;;;;;;;;;;;;;;135770;1282;23036;-83
2023/11/29 19:15:05;;;;;;;;;;;;;;;;;;136208;1286;22531;-83
2023/11/29 19:18:06;;;;;;;;;;;;;;;;;;135985;1286;22515;-84
2023/11/29 19:21:08;;;;;;;;;;;;;;;;;;135892;1280;316505;-83
2023/11/29 19:24:10;;;;;;;;;;;;;;;;;;136547;1280;22520;-84
2023/11/29 19:27:14;;;;;;;;;;;;;;;;;;136538;1280;22543;-84
2023/11/29 19:30:15;;;;;;;;;;;;;;;;;;136394;1280;22549;-83
2023/11/29 19:33:19;;;;;;;;;;;;;;;;;;136509;1280;22629;-85
2023/11/29 19:36:20;;;;;;;;;;;;;;;;;;136541;1280;22566;-83
2023/11/29 19:39:21;;;;;;;;;;;;;;;;;;136834;1279;22513;-82
2023/11/29 19:42:22;;;;;;;;;;;;;;;;;;137164;1275;22600;-83
2023/11/29 19:45:24;;;;;;;;;;;;;;;;;;137021;1275;22513;-82
2023/11/29 19:48:25;;;;;;;;;;;;;;;;;;136839;1272;22569;-83
2023/11/29 19:51:26;;;;;;;;;;;;;;;;;;136805;1275;22541;-82
2023/11/29 19:54:29;;;;;;;;;;;;;;;;;;137205;1275;22510;-83
2023/11/29 19:57:30;;;;;;;;;;;;;;;;;;136918;1275;23044;-82
2023/11/29 20:00:31;;;;;;;;;;;;;;;;;;137373;1275;22798;-82
2023/11/29 20:03:32;;;;;;;;;;;;;;;;;;137312;1275;22337;-82
2023/11/29 20:06:33;;;;;;;;;;;;;;;;;;137353;1275;22399;-83
2023/11/29 20:09:35;;;;;;;;;;;;;;;;;;137326;1275;22835;-82
2023/11/29 20:12:36;;;;;;;;;;;;;;;;;;137332;1275;22829;-83
2023/11/29 20:15:37;;;;;;;;;;;;;;;;;;137370;1275;22292;-83
2023/11/29 20:18:40;;;;;;;;;;;;;;;;;;136676;1275;23008;-83
2023/11/29 20:21:41;;;;;;;;;;;;;;;;;;137010;1275;26805;-82
2023/11/29 20:24:42;;;;;;;;;;;;;;;;;;137115;1275;22516;-83
2023/11/29 20:27:43;;;;;;;;;;;;;;;;;;137034;1275;22965;-83
2023/11/29 20:30:44;;;;;;;;;;;;;;;;;;136901;1275;22546;-82